createdAt,value
2023-03-05T00:00:18.584Z,5.30
2023-03-05T00:02:45.865Z,5.60
2023-03-05T00:05:13.129Z,4.63
2023-03-05T00:07:40.368Z,5.00
2023-03-05T00:10:07.933Z,4.77
2023-03-05T00:12:35.250Z,4.77
2023-03-05T00:15:02.563Z,5.63
2023-03-05T00:17:30.801Z,6.53
2023-03-05T00:20:00.329Z,6.30
2023-03-05T00:22:29.558Z,6.20
2023-03-05T00:24:56.802Z,7.03
2023-03-05T00:27:24.300Z,5.40
2023-03-05T00:29:51.710Z,4.97
2023-03-05T00:32:18.940Z,5.10
2023-03-05T00:34:46.216Z,5.50
2023-03-05T00:37:13.418Z,6.70
2023-03-05T00:39:40.855Z,7.60
2023-03-05T00:42:08.334Z,8.17
2023-03-05T00:44:35.753Z,8.53
2023-03-05T00:47:02.990Z,9.07
2023-03-05T00:49:30.171Z,10.60
2023-03-05T00:51:57.353Z,15.13
2023-03-05T00:54:24.504Z,15.60
2023-03-05T00:56:51.718Z,20.97
2023-03-05T00:59:21.781Z,23.33
2023-03-05T01:01:49.026Z,15.77
2023-03-05T01:04:16.572Z,13.23
2023-03-05T01:06:46.147Z,12.33
2023-03-05T01:09:13.423Z,15.30
2023-03-05T01:11:40.826Z,16.60
2023-03-05T01:14:08.212Z,13.23
2023-03-05T01:16:35.397Z,11.20
2023-03-05T01:19:02.604Z,9.20
2023-03-05T01:21:29.850Z,7.37
2023-03-05T01:23:57.142Z,8.93
2023-03-05T01:26:24.511Z,9.80
2023-03-05T01:28:51.671Z,10.90
2023-03-05T01:31:18.892Z,11.53
2023-03-05T01:33:46.332Z,16.53
2023-03-05T01:36:16.732Z,23.90
2023-03-05T01:38:44.366Z,19.23
2023-03-05T01:41:12.292Z,11.00
2023-03-05T01:43:39.805Z,10.63
2023-03-05T01:46:22.365Z,13.37
2023-03-05T01:48:59.105Z,14.10
2023-03-05T01:51:27.634Z,9.27
2023-03-05T01:53:55.820Z,8.83
2023-03-05T01:56:23.081Z,7.10
2023-03-05T01:58:50.695Z,7.90
2023-03-05T02:01:18.113Z,10.63
2023-03-05T02:03:46.220Z,11.03
2023-03-05T02:06:13.683Z,12.43
2023-03-05T02:08:40.912Z,14.50
2023-03-05T02:11:08.411Z,15.13
2023-03-05T02:13:38.642Z,14.33
2023-03-05T02:16:06.371Z,9.47
2023-03-05T02:18:33.736Z,8.17
2023-03-05T02:21:02.666Z,7.53
2023-03-05T02:23:33.947Z,6.50
2023-03-05T02:26:01.263Z,5.93
2023-03-05T02:28:31.402Z,5.43
2023-03-05T02:30:58.657Z,7.10
2023-03-05T02:33:25.930Z,5.93
2023-03-05T02:35:53.167Z,5.17
2023-03-05T02:38:21.621Z,4.83
2023-03-05T02:40:48.852Z,4.60
2023-03-05T02:43:16.192Z,4.80
2023-03-05T02:45:43.427Z,4.40
2023-03-05T02:48:10.697Z,4.57
2023-03-05T02:50:39.708Z,5.03
2023-03-05T02:53:06.990Z,4.70
2023-03-05T02:55:34.575Z,5.23
2023-03-05T02:58:01.808Z,5.60
2023-03-05T03:00:29.285Z,5.63
2023-03-05T03:02:56.879Z,5.77
2023-03-05T03:05:24.241Z,6.07
2023-03-05T03:07:51.733Z,5.80
2023-03-05T03:10:19.057Z,5.03
2023-03-05T03:12:46.532Z,4.33
2023-03-05T03:15:14.912Z,5.07
2023-03-05T03:17:42.167Z,5.03
2023-03-05T03:20:10.807Z,5.00
2023-03-05T03:22:38.157Z,4.60
2023-03-05T03:25:05.615Z,4.57
2023-03-05T03:27:32.814Z,5.80
2023-03-05T03:30:04.914Z,5.70
2023-03-05T03:32:32.784Z,6.67
2023-03-05T03:35:00.447Z,6.47
2023-03-05T03:37:28.130Z,6.73
2023-03-05T03:39:55.772Z,6.97
2023-03-05T03:42:23.462Z,4.93
2023-03-05T03:44:51.383Z,5.03
2023-03-05T03:47:18.757Z,5.23
2023-03-05T03:49:45.960Z,4.37
2023-03-05T03:52:13.190Z,4.43
2023-03-05T03:54:41.027Z,4.80
2023-03-05T03:57:08.225Z,5.83
2023-03-05T03:59:35.462Z,5.77
2023-03-05T04:02:02.799Z,5.33
2023-03-05T04:04:30.418Z,5.07
2023-03-05T04:06:57.977Z,4.37
2023-03-05T04:09:25.167Z,4.40
2023-03-05T04:11:52.360Z,4.40
2023-03-05T04:14:19.751Z,3.93
2023-03-05T04:16:47.053Z,4.70
2023-03-05T04:19:14.485Z,3.90
2023-03-05T04:21:41.786Z,4.37
2023-03-05T04:24:09.259Z,4.80
2023-03-05T04:26:36.674Z,4.90
2023-03-05T04:29:04.303Z,5.40
2023-03-05T04:31:31.610Z,4.50
2023-03-05T04:33:59.982Z,5.23
2023-03-05T04:36:27.179Z,5.20
2023-03-05T04:38:54.544Z,5.87
2023-03-05T04:41:22.221Z,4.80
2023-03-05T04:43:49.515Z,4.77
2023-03-05T04:46:16.993Z,4.97
2023-03-05T04:48:44.233Z,5.10
2023-03-05T04:51:11.448Z,5.97
2023-03-05T04:53:38.701Z,5.50
2023-03-05T04:56:06.054Z,5.33
2023-03-05T04:58:33.260Z,5.47
2023-03-05T05:01:04.687Z,5.27
2023-03-05T05:03:32.125Z,5.93
2023-03-05T05:06:00.172Z,5.20
2023-03-05T05:08:28.099Z,5.67
2023-03-05T05:11:05.520Z,5.97
2023-03-05T05:13:33.400Z,5.60
2023-03-05T05:16:00.807Z,5.53
2023-03-05T05:18:28.088Z,5.53
2023-03-05T05:20:55.469Z,5.40
2023-03-05T05:23:22.688Z,5.17
2023-03-05T05:25:59.667Z,5.20
2023-03-05T05:28:26.883Z,5.40
2023-03-05T05:30:54.391Z,5.17
2023-03-05T05:33:22.211Z,5.43
2023-03-05T05:35:49.595Z,4.93
2023-03-05T05:38:17.076Z,4.83
2023-03-05T05:40:44.359Z,4.83
2023-03-05T05:43:11.684Z,5.23
2023-03-05T05:45:39.538Z,4.77
2023-03-05T05:48:06.878Z,4.53
2023-03-05T05:50:34.140Z,4.00
2023-03-05T05:53:01.323Z,3.77
2023-03-05T05:55:28.696Z,3.20
2023-03-05T05:57:56.162Z,2.90
2023-03-05T06:00:23.568Z,3.33
2023-03-05T06:02:50.794Z,2.50
2023-03-05T06:05:18.046Z,3.17
2023-03-05T06:07:45.285Z,2.70
2023-03-05T06:10:12.776Z,2.30
2023-03-05T06:12:39.980Z,1.77
2023-03-05T06:15:07.511Z,3.83
2023-03-05T06:17:34.857Z,3.67
2023-03-05T06:20:02.350Z,3.63
2023-03-05T06:22:29.660Z,2.67
2023-03-05T06:24:56.899Z,2.40
2023-03-05T06:27:24.068Z,2.07
2023-03-05T06:29:53.275Z,1.97
2023-03-05T06:32:21.103Z,2.47
2023-03-05T06:34:48.350Z,2.23
2023-03-05T06:37:15.600Z,1.97
2023-03-05T06:39:42.832Z,2.73
2023-03-05T06:42:10.307Z,2.60
2023-03-05T06:44:41.043Z,2.23
2023-03-05T06:47:10.546Z,1.83
2023-03-05T06:49:38.271Z,2.23
2023-03-05T06:52:06.194Z,3.60
2023-03-05T06:54:33.385Z,3.13
2023-03-05T06:57:00.656Z,2.77
2023-03-05T06:59:27.809Z,2.67
2023-03-05T07:01:54.971Z,2.17
2023-03-05T07:04:24.195Z,2.50
2023-03-05T07:06:51.561Z,2.40
2023-03-05T07:09:18.771Z,2.87
2023-03-05T07:11:46.206Z,2.40
2023-03-05T07:14:13.815Z,2.27
2023-03-05T07:16:41.004Z,2.17
2023-03-05T07:19:08.215Z,2.50
2023-03-05T07:21:38.335Z,3.17
2023-03-05T07:24:07.128Z,2.60
2023-03-05T07:26:34.408Z,2.93
2023-03-05T07:29:01.942Z,2.60
2023-03-05T07:31:31.702Z,3.27
2023-03-05T07:33:59.928Z,3.17
2023-03-05T07:36:29.665Z,3.50
2023-03-05T07:38:57.427Z,3.03
2023-03-05T07:41:24.853Z,3.23
2023-03-05T07:43:54.534Z,3.53
2023-03-05T07:46:23.601Z,3.10
2023-03-05T07:48:51.420Z,2.83
2023-03-05T07:51:20.153Z,2.80
2023-03-05T07:53:48.554Z,3.67
2023-03-05T07:56:21.567Z,3.30
2023-03-05T07:58:48.824Z,4.00
2023-03-05T08:01:16.323Z,4.50
2023-03-05T08:03:44.034Z,4.53
2023-03-05T08:06:12.586Z,4.80
2023-03-05T08:08:40.131Z,4.10
2023-03-05T08:11:10.779Z,3.87
2023-03-05T08:13:38.396Z,3.57
2023-03-05T08:16:06.583Z,2.90
2023-03-05T08:18:34.285Z,3.47
2023-03-05T08:21:01.638Z,3.30
2023-03-05T08:23:29.199Z,3.10
2023-03-05T08:25:56.938Z,3.10
2023-03-05T08:28:24.691Z,2.50
2023-03-05T08:30:52.032Z,3.40
2023-03-05T08:33:19.412Z,2.93
2023-03-05T08:35:46.918Z,3.13
2023-03-05T08:38:14.191Z,2.73
2023-03-05T08:40:41.526Z,2.90
2023-03-05T08:43:08.731Z,2.83
2023-03-05T08:45:35.966Z,2.47
2023-03-05T08:48:03.286Z,3.17
2023-03-05T08:50:30.619Z,2.30
2023-03-05T08:52:57.967Z,2.90
2023-03-05T08:55:25.193Z,2.97
2023-03-05T08:57:52.404Z,2.40
2023-03-05T09:00:19.873Z,2.53
2023-03-05T09:02:47.119Z,2.53
2023-03-05T09:05:14.575Z,2.37
2023-03-05T09:07:41.880Z,2.90
2023-03-05T09:10:11.578Z,2.60
2023-03-05T09:12:38.856Z,2.80
2023-03-05T09:15:08.441Z,3.23
2023-03-05T09:17:36.192Z,2.17
2023-03-05T09:20:04.458Z,2.90
2023-03-05T09:22:37.984Z,2.30
2023-03-05T09:25:05.452Z,1.90
2023-03-05T09:27:36.210Z,2.60
2023-03-05T09:30:03.824Z,3.13
2023-03-05T09:32:32.599Z,3.50
2023-03-05T09:35:02.081Z,4.10
2023-03-05T09:37:29.535Z,2.80
2023-03-05T09:39:57.170Z,2.77
2023-03-05T09:42:30.406Z,2.53
2023-03-05T09:45:00.390Z,3.90
2023-03-05T09:47:27.779Z,4.27
2023-03-05T09:50:00.391Z,2.57
2023-03-05T09:52:42.734Z,2.13
2023-03-05T09:55:36.346Z,2.10
2023-03-05T09:58:21.247Z,2.30
2023-03-05T10:00:51.130Z,1.77
2023-03-05T10:03:38.548Z,2.37
2023-03-05T10:06:23.130Z,2.27
2023-03-05T10:09:01.219Z,2.30
2023-03-05T10:11:38.968Z,2.23
2023-03-05T10:14:07.984Z,2.43
2023-03-05T10:16:38.190Z,2.27
2023-03-05T10:19:20.710Z,2.07
2023-03-05T10:22:03.324Z,1.93
2023-03-05T10:24:46.216Z,2.23
2023-03-05T10:27:20.671Z,2.17
2023-03-05T10:30:06.853Z,2.60
2023-03-05T10:32:43.447Z,3.53
2023-03-05T10:35:19.232Z,2.60
2023-03-05T10:37:55.489Z,2.77
2023-03-05T10:40:29.994Z,2.80
2023-03-05T10:43:16.184Z,2.67
2023-03-05T10:45:44.752Z,2.00
2023-03-05T10:48:30.436Z,2.33
2023-03-05T10:51:19.178Z,2.37
2023-03-05T10:53:52.707Z,1.73
2023-03-05T10:56:22.627Z,1.73
2023-03-05T10:58:52.040Z,2.20
2023-03-05T11:01:24.345Z,2.83
2023-03-05T11:03:57.819Z,2.40
2023-03-05T11:06:45.789Z,2.63
2023-03-05T11:09:21.005Z,2.77
2023-03-05T11:12:14.494Z,2.60
2023-03-05T11:14:44.898Z,2.40
2023-03-05T11:17:24.156Z,2.53
2023-03-05T11:19:51.437Z,2.53
2023-03-05T11:22:19.118Z,3.03
2023-03-05T11:25:03.293Z,3.63
2023-03-05T11:27:37.694Z,3.50
2023-03-05T11:30:05.593Z,3.33
2023-03-05T11:32:33.118Z,3.00
2023-03-05T11:35:00.385Z,3.70
2023-03-05T11:37:27.602Z,2.47
2023-03-05T11:40:13.733Z,3.10
2023-03-05T11:42:41.657Z,3.83
2023-03-05T11:45:15.324Z,4.83
2023-03-05T11:47:48.400Z,3.30
2023-03-05T11:50:26.445Z,5.90
2023-03-05T11:52:56.371Z,6.77
2023-03-05T11:55:33.504Z,3.60
2023-03-05T11:58:19.376Z,4.70
2023-03-05T12:00:47.357Z,1.67
2023-03-05T12:03:19.829Z,2.33
2023-03-05T12:05:50.324Z,4.50
2023-03-05T12:08:21.518Z,2.30
2023-03-05T12:10:48.807Z,1.60
2023-03-05T12:13:23.442Z,1.80
2023-03-05T12:15:50.845Z,1.50
2023-03-05T12:18:30.497Z,1.83
2023-03-05T12:20:57.816Z,2.47
2023-03-05T12:23:28.006Z,4.10
2023-03-05T12:26:01.191Z,4.53
2023-03-05T12:28:37.427Z,2.93
2023-03-05T12:31:05.744Z,2.83
2023-03-05T12:33:40.144Z,2.50
2023-03-05T12:36:22.659Z,2.77
2023-03-05T12:38:54.416Z,2.33
2023-03-05T12:41:25.898Z,3.07
2023-03-05T12:44:07.157Z,3.10
2023-03-05T12:46:38.494Z,2.23
2023-03-05T12:49:21.225Z,1.73
2023-03-05T12:51:49.314Z,1.53
2023-03-05T12:54:23.676Z,2.20
2023-03-05T12:56:51.266Z,3.03
2023-03-05T12:59:20.996Z,2.53
2023-03-05T13:01:51.990Z,3.57
2023-03-05T13:04:23.242Z,2.70
2023-03-05T13:07:00.672Z,3.07
2023-03-05T13:09:29.906Z,2.77
2023-03-05T13:11:57.400Z,2.23
2023-03-05T13:14:31.000Z,2.90
2023-03-05T13:16:58.527Z,3.60
2023-03-05T13:19:26.137Z,3.30
2023-03-05T13:22:00.513Z,2.83
2023-03-05T13:24:29.223Z,2.50
2023-03-05T13:26:57.087Z,2.17
2023-03-05T13:29:28.491Z,2.93
2023-03-05T13:32:03.368Z,2.03
2023-03-05T13:34:46.226Z,2.30
2023-03-05T13:37:19.250Z,2.87
2023-03-05T13:39:53.058Z,2.43
2023-03-05T13:42:21.566Z,3.43
2023-03-05T13:45:17.874Z,3.27
2023-03-05T13:47:52.159Z,3.87
2023-03-05T13:50:23.802Z,3.23
2023-03-05T13:52:51.101Z,3.50
2023-03-05T13:55:19.275Z,3.30
2023-03-05T13:57:50.355Z,2.87
2023-03-05T14:00:27.068Z,3.20
2023-03-05T14:02:56.691Z,3.97
2023-03-05T14:05:25.454Z,3.93
2023-03-05T14:07:55.646Z,3.37
2023-03-05T14:10:30.592Z,3.07
2023-03-05T14:12:58.634Z,3.87
2023-03-05T14:15:32.754Z,3.50
2023-03-05T14:18:12.298Z,3.83
2023-03-05T14:20:41.991Z,3.03
2023-03-05T14:23:27.662Z,2.60
2023-03-05T14:26:11.875Z,3.03
2023-03-05T14:28:39.096Z,2.50
2023-03-05T14:31:15.210Z,2.83
2023-03-05T14:33:42.923Z,2.80
2023-03-05T14:36:11.095Z,3.57
2023-03-05T14:38:41.441Z,2.63
2023-03-05T14:41:22.574Z,2.90
2023-03-05T14:43:49.803Z,3.60
2023-03-05T14:46:17.453Z,4.13
2023-03-05T14:48:44.813Z,4.20
2023-03-05T14:51:12.381Z,4.20
2023-03-05T14:53:41.025Z,3.67
2023-03-05T14:56:17.241Z,4.10
2023-03-05T14:58:44.461Z,4.10
2023-03-05T15:01:13.259Z,5.27
2023-03-05T15:03:41.702Z,6.77
2023-03-05T15:06:29.197Z,6.23
2023-03-05T15:08:56.434Z,4.90
2023-03-05T15:11:23.788Z,3.77
2023-03-05T15:13:51.148Z,2.73
2023-03-05T15:16:19.210Z,2.43
2023-03-05T15:18:47.012Z,2.50
2023-03-05T15:21:14.276Z,2.47
2023-03-05T15:23:41.816Z,2.53
2023-03-05T15:26:10.483Z,2.57
2023-03-05T15:28:38.880Z,2.70
2023-03-05T15:31:06.600Z,2.40
2023-03-05T15:33:34.056Z,2.40
2023-03-05T15:36:01.265Z,3.27
2023-03-05T15:38:28.505Z,2.70
2023-03-05T15:40:55.756Z,2.80
2023-03-05T15:43:22.953Z,2.77
2023-03-05T15:45:50.183Z,2.07
2023-03-05T15:48:17.424Z,2.10
2023-03-05T15:50:45.419Z,1.90
2023-03-05T15:53:15.869Z,1.70
2023-03-05T15:55:43.865Z,2.07
2023-03-05T15:58:14.484Z,2.67
2023-03-05T16:00:42.104Z,1.90
2023-03-05T16:03:09.390Z,2.27
2023-03-05T16:05:37.007Z,2.00
2023-03-05T16:08:04.300Z,2.00
2023-03-05T16:10:31.954Z,2.30
2023-03-05T16:13:04.157Z,2.10
2023-03-05T16:15:33.062Z,2.73
2023-03-05T16:18:02.453Z,2.83
2023-03-05T16:20:29.834Z,3.57
2023-03-05T16:22:57.083Z,4.97
2023-03-05T16:25:24.292Z,8.30
2023-03-05T16:27:57.719Z,8.03
2023-03-05T16:30:25.188Z,5.20
2023-03-05T16:32:53.786Z,3.33
2023-03-05T16:35:21.526Z,2.10
2023-03-05T16:37:48.931Z,2.33
2023-03-05T16:40:16.208Z,2.23
2023-03-05T16:42:43.480Z,2.63
2023-03-05T16:45:11.556Z,2.53
2023-03-05T16:47:39.221Z,2.80
2023-03-05T16:50:07.276Z,2.67
2023-03-05T16:52:34.578Z,2.77
2023-03-05T16:55:01.880Z,2.63
2023-03-05T16:57:29.245Z,3.13
2023-03-05T16:59:56.812Z,3.27
2023-03-05T17:02:24.220Z,3.07
2023-03-05T17:04:51.607Z,3.50
2023-03-05T17:07:19.129Z,3.90
2023-03-05T17:09:48.010Z,3.67
2023-03-05T17:12:15.250Z,5.37
2023-03-05T17:14:42.481Z,12.23
2023-03-05T17:17:09.712Z,10.47
2023-03-05T17:19:37.044Z,10.57
2023-03-05T17:22:04.765Z,10.70
2023-03-05T17:24:33.038Z,25.37
2023-03-05T17:27:01.073Z,71.70
2023-03-05T17:29:28.512Z,61.93
2023-03-05T17:31:55.782Z,21.70
2023-03-05T17:34:35.608Z,22.07
2023-03-05T17:37:03.796Z,17.23
2023-03-05T17:39:31.050Z,17.63
2023-03-05T17:41:58.208Z,13.63
2023-03-05T17:44:25.488Z,13.77
2023-03-05T17:46:53.003Z,7.50
2023-03-05T17:49:20.259Z,9.00
2023-03-05T17:51:47.545Z,9.50
2023-03-05T17:54:14.848Z,9.90
2023-03-05T17:56:42.041Z,11.43
2023-03-05T17:59:09.344Z,11.67
2023-03-05T18:01:36.596Z,11.67
2023-03-05T18:04:04.013Z,13.80
2023-03-05T18:06:32.574Z,14.73
2023-03-05T18:08:59.833Z,9.67
2023-03-05T18:11:27.558Z,8.27
2023-03-05T18:13:54.871Z,6.90
2023-03-05T18:16:23.726Z,6.97
2023-03-05T18:18:51.000Z,8.57
2023-03-05T18:21:22.704Z,9.70
2023-03-05T18:23:51.044Z,8.37
2023-03-05T18:26:18.642Z,8.77
2023-03-05T18:28:45.878Z,8.43
2023-03-05T18:31:13.140Z,10.67
2023-03-05T18:33:41.077Z,9.13
2023-03-05T18:36:10.826Z,11.20
2023-03-05T18:38:38.601Z,11.23
2023-03-05T18:41:06.553Z,11.90
2023-03-05T18:43:33.895Z,11.77
2023-03-05T18:46:04.883Z,11.97
2023-03-05T18:48:32.201Z,12.63
2023-03-05T18:51:01.282Z,13.77
2023-03-05T18:53:29.407Z,18.50
2023-03-05T18:55:56.725Z,19.30
2023-03-05T18:58:26.031Z,20.37
2023-03-05T19:00:53.902Z,19.70
2023-03-05T19:03:22.964Z,20.37
2023-03-05T19:05:51.247Z,14.77
2023-03-05T19:08:18.776Z,12.73
2023-03-05T19:10:46.199Z,12.47
2023-03-05T19:13:28.088Z,11.83
2023-03-05T19:15:55.393Z,13.17
2023-03-05T19:18:23.440Z,13.63
2023-03-05T19:20:56.947Z,16.43
2023-03-05T19:23:25.392Z,13.23
2023-03-05T19:25:52.636Z,12.87
2023-03-05T19:28:21.289Z,13.27
2023-03-05T19:30:49.989Z,12.60
2023-03-05T19:33:17.225Z,12.70
2023-03-05T19:35:44.705Z,13.17
2023-03-05T19:38:14.663Z,13.83
2023-03-05T19:40:42.010Z,14.13
2023-03-05T19:43:09.305Z,11.80
2023-03-05T19:45:36.571Z,11.33
2023-03-05T19:48:03.809Z,9.93
2023-03-05T19:50:32.907Z,10.77
2023-03-05T19:53:01.594Z,9.57
2023-03-05T19:55:28.956Z,9.87
2023-03-05T19:57:56.219Z,10.17
2023-03-05T20:00:26.336Z,9.00
2023-03-05T20:02:53.596Z,8.27
2023-03-05T20:05:23.094Z,9.13
2023-03-05T20:07:50.261Z,9.40
2023-03-05T20:10:17.596Z,7.80
2023-03-05T20:12:47.906Z,7.07
2023-03-05T20:15:15.348Z,7.73
2023-03-05T20:17:45.832Z,8.30
2023-03-05T20:20:16.879Z,8.67
2023-03-05T20:22:45.138Z,7.97
2023-03-05T20:25:13.485Z,8.67
2023-03-05T20:27:40.871Z,9.40
2023-03-05T20:30:09.681Z,9.27
2023-03-05T20:32:36.980Z,10.43
2023-03-05T20:35:04.654Z,11.87
2023-03-05T20:37:40.292Z,10.80
2023-03-05T20:40:08.237Z,10.23
2023-03-05T20:42:35.434Z,10.00
2023-03-05T20:45:02.687Z,11.00
2023-03-05T20:47:40.657Z,11.93
2023-03-05T20:50:09.921Z,11.33
2023-03-05T20:52:38.192Z,11.90
2023-03-05T20:55:06.263Z,11.77
2023-03-05T20:57:33.553Z,12.67
2023-03-05T21:00:00.778Z,13.00
2023-03-05T21:02:28.207Z,17.33
2023-03-05T21:04:55.448Z,22.63
2023-03-05T21:07:22.735Z,25.23
2023-03-05T21:09:50.171Z,23.23
2023-03-05T21:12:17.362Z,25.70
2023-03-05T21:14:44.526Z,25.03
2023-03-05T21:17:11.805Z,27.60
2023-03-05T21:19:39.762Z,30.17
2023-03-05T21:22:07.124Z,27.67
2023-03-05T21:24:45.535Z,22.90
2023-03-05T21:27:12.870Z,19.50
2023-03-05T21:29:40.251Z,16.40
2023-03-05T21:32:07.681Z,17.17
2023-03-05T21:34:34.978Z,15.93
2023-03-05T21:37:02.520Z,16.30
2023-03-05T21:39:29.661Z,18.73
2023-03-05T21:41:56.854Z,18.60
2023-03-05T21:44:24.059Z,18.20
2023-03-05T21:46:51.547Z,19.33
2023-03-05T21:49:18.880Z,21.87
2023-03-05T21:52:03.173Z,20.60
2023-03-05T21:54:30.436Z,19.27
2023-03-05T21:56:57.697Z,18.17
2023-03-05T21:59:25.365Z,17.07
2023-03-05T22:01:52.697Z,16.67
2023-03-05T22:04:19.926Z,16.63
2023-03-05T22:06:47.222Z,18.27
2023-03-05T22:09:14.515Z,18.67
2023-03-05T22:11:45.178Z,16.43
2023-03-05T22:14:12.426Z,16.73
2023-03-05T22:16:39.655Z,16.60
2023-03-05T22:19:07.190Z,18.40
2023-03-05T22:21:34.621Z,16.90
2023-03-05T22:24:01.805Z,16.13
2023-03-05T22:26:36.136Z,15.50
2023-03-05T22:29:03.428Z,16.57
2023-03-05T22:31:30.980Z,17.33
2023-03-05T22:33:58.203Z,16.33
2023-03-05T22:36:25.641Z,15.53
2023-03-05T22:38:53.451Z,14.87
2023-03-05T22:41:21.793Z,13.30
2023-03-05T22:43:49.425Z,15.53
2023-03-05T22:46:21.686Z,13.43
2023-03-05T22:48:49.586Z,14.30
2023-03-05T22:51:17.886Z,14.07
2023-03-05T22:53:45.456Z,13.90
2023-03-05T22:56:14.529Z,15.03
2023-03-05T22:58:42.166Z,15.87
2023-03-05T23:01:13.401Z,15.47
2023-03-05T23:03:41.858Z,13.00
2023-03-05T23:06:09.641Z,13.00
2023-03-05T23:08:39.894Z,12.17
2023-03-05T23:11:11.504Z,12.27
2023-03-05T23:13:39.378Z,12.03
2023-03-05T23:16:06.747Z,11.53
2023-03-05T23:18:35.964Z,13.43
2023-03-05T23:21:03.273Z,13.63
2023-03-05T23:23:30.624Z,13.20
2023-03-05T23:25:57.955Z,12.10
2023-03-05T23:28:25.172Z,12.20
2023-03-05T23:30:52.631Z,13.30
2023-03-05T23:33:22.726Z,14.47
2023-03-05T23:35:57.165Z,16.13
2023-03-05T23:38:25.341Z,15.63
2023-03-05T23:40:54.045Z,16.57
2023-03-05T23:43:22.111Z,14.83
2023-03-05T23:45:50.358Z,14.83
2023-03-05T23:48:18.092Z,16.93
2023-03-05T23:50:47.989Z,18.30
2023-03-05T23:53:17.532Z,18.60
2023-03-05T23:55:45.170Z,19.27
2023-03-05T23:58:12.436Z,23.17
